Terminal Aerodrome Forecast
Issued by NWS

Home | Current Version | Previous Version | Text Only | Print | Product List | Glossary On
Versions: 1 2 3 4 5 6 7 8 9 10 11 12 13 14
000
FTAK31 PAJN 250619 AAB
TAFAYA
TAF AMD
PAYA 250619Z 2506/2606 08005KT 6SM -SN SCT013 OVC026
      TEMPO 2506/2510 2SM -FZRA BR OVC004
     FM251000 15005KT 5SM -RASN BKN030 OVC050
     FM251200 07005KT 6SM -SN SCT030 OVC050
     FM251800 06007KT P6SM FEW100
      AMD LTD TO CLD VIS AND WIND TIL 250900=

USA.gov is the U.S. government's official web portal to all federal, state and local government web resources and services.